createdAt,value
2018-11-28T00:00:12.770Z,91.30
2018-11-28T00:02:41.830Z,91.30
2018-11-28T00:05:12.273Z,91.40
2018-11-28T00:07:41.242Z,91.40
2018-11-28T00:10:12.014Z,91.50
2018-11-28T00:12:40.766Z,91.50
2018-11-28T00:15:11.354Z,91.50
2018-11-28T00:17:39.966Z,91.40
2018-11-28T00:20:13.502Z,91.40
2018-11-28T00:22:42.294Z,91.40
2018-11-28T00:25:11.662Z,91.40
2018-11-28T00:27:40.287Z,91.40
2018-11-28T00:30:12.982Z,91.40
2018-11-28T00:32:41.926Z,91.40
2018-11-28T00:35:13.553Z,91.40
2018-11-28T00:37:42.122Z,91.40
2018-11-28T00:40:14.362Z,91.30
2018-11-28T00:42:42.997Z,91.30
2018-11-28T00:45:13.165Z,91.30
2018-11-28T00:47:41.753Z,91.30
2018-11-28T00:50:11.530Z,91.20
2018-11-28T00:52:40.122Z,91.20
2018-11-28T00:55:10.234Z,91.30
2018-11-28T00:57:38.792Z,91.30
2018-11-28T01:00:13.519Z,91.30
2018-11-28T01:02:42.378Z,91.30
2018-11-28T01:05:11.770Z,91.20
2018-11-28T01:07:40.698Z,91.20
2018-11-28T01:10:13.135Z,91.20
2018-11-28T01:12:41.814Z,91.10
2018-11-28T01:15:11.539Z,91.10
2018-11-28T01:17:40.105Z,91.10
2018-11-28T01:20:14.398Z,91.10
2018-11-28T01:22:44.389Z,91.00
2018-11-28T01:25:13.949Z,90.90
2018-11-28T01:27:43.000Z,90.80
2018-11-28T01:30:12.574Z,90.70
2018-11-28T01:32:41.141Z,90.60
2018-11-28T01:35:11.242Z,90.60
2018-11-28T01:37:39.987Z,90.50
2018-11-28T01:40:10.838Z,90.60
2018-11-28T01:42:39.758Z,90.60
2018-11-28T01:45:09.601Z,90.70
2018-11-28T01:47:38.181Z,90.60
2018-11-28T01:50:09.731Z,90.40
2018-11-28T01:52:39.012Z,90.20
2018-11-28T01:55:15.218Z,90.20
2018-11-28T01:57:44.278Z,90.10
2018-11-28T02:00:19.786Z,90.00
2018-11-28T02:02:52.373Z,89.90
2018-11-28T02:05:20.940Z,89.90
2018-11-28T02:07:49.499Z,89.70
2018-11-28T02:10:18.108Z,90.00
2018-11-28T02:12:46.706Z,90.00
2018-11-28T02:15:19.794Z,90.00
2018-11-28T02:17:48.418Z,89.60
2018-11-28T02:20:17.589Z,89.50
2018-11-28T02:22:46.494Z,89.90
2018-11-28T02:25:16.389Z,90.10
2018-11-28T02:27:45.310Z,90.10
2018-11-28T02:30:15.197Z,90.00
2018-11-28T02:32:44.037Z,89.80
2018-11-28T02:35:13.731Z,89.70
2018-11-28T02:37:42.443Z,89.60
2018-11-28T02:40:12.730Z,89.40
2018-11-28T02:42:41.915Z,89.20
2018-11-28T02:45:18.806Z,89.20
2018-11-28T02:47:47.369Z,89.30
2018-11-28T02:50:15.959Z,89.40
2018-11-28T02:52:44.537Z,89.10
2018-11-28T02:55:13.969Z,89.10
2018-11-28T02:57:44.195Z,89.10
2018-11-28T03:00:17.414Z,89.00
2018-11-28T03:02:45.975Z,89.50
2018-11-28T03:05:14.761Z,88.90
2018-11-28T03:07:43.391Z,89.10
2018-11-28T03:10:15.882Z,89.20
2018-11-28T03:12:44.488Z,89.20
2018-11-28T03:15:15.441Z,89.10
2018-11-28T03:17:44.538Z,89.00
2018-11-28T03:20:13.118Z,89.20
2018-11-28T03:22:41.677Z,89.20
2018-11-28T03:25:11.732Z,89.20
2018-11-28T03:27:40.683Z,89.10
2018-11-28T03:30:14.475Z,89.10
2018-11-28T03:32:43.159Z,89.10
2018-11-28T03:35:15.819Z,89.00
2018-11-28T03:37:44.516Z,88.90
2018-11-28T03:40:13.724Z,88.90
2018-11-28T03:42:42.514Z,88.90
2018-11-28T03:45:12.334Z,88.70
2018-11-28T03:47:41.161Z,88.60
2018-11-28T03:50:10.890Z,88.50
2018-11-28T03:52:39.774Z,88.60
2018-11-28T03:55:10.555Z,88.80
2018-11-28T03:57:39.143Z,89.40
2018-11-28T04:00:13.111Z,88.70
2018-11-28T04:02:41.729Z,88.70
2018-11-28T04:05:10.506Z,88.70
2018-11-28T04:07:39.111Z,88.80
2018-11-28T04:10:10.154Z,88.90
2018-11-28T04:12:39.276Z,88.80
2018-11-28T04:15:12.614Z,88.90
2018-11-28T04:17:41.242Z,89.10
2018-11-28T04:20:12.398Z,89.20
2018-11-28T04:22:41.123Z,89.20
2018-11-28T04:25:10.440Z,89.20
2018-11-28T04:27:39.298Z,89.10
2018-11-28T04:30:14.982Z,89.20
2018-11-28T04:32:43.534Z,89.10
2018-11-28T04:35:13.870Z,89.10
2018-11-28T04:37:43.010Z,89.20
2018-11-28T04:40:12.554Z,89.80
2018-11-28T04:42:41.533Z,89.10
2018-11-28T04:45:13.920Z,89.10
2018-11-28T04:47:42.612Z,89.10
2018-11-28T04:50:12.101Z,89.10
2018-11-28T04:52:40.738Z,89.00
2018-11-28T04:55:12.231Z,89.00
2018-11-28T04:57:40.826Z,89.00
2018-11-28T05:00:26.676Z,89.00
2018-11-28T05:02:56.707Z,88.90
2018-11-28T05:05:25.312Z,89.10
2018-11-28T05:07:54.152Z,89.10
2018-11-28T05:10:26.479Z,89.20
2018-11-28T05:12:55.729Z,89.20
2018-11-28T05:15:26.154Z,89.40
2018-11-28T05:17:54.878Z,89.30
2018-11-28T05:20:24.368Z,89.30
2018-11-28T05:22:52.930Z,89.30
2018-11-28T05:25:23.354Z,89.20
2018-11-28T05:27:52.746Z,89.00
2018-11-28T05:30:23.138Z,88.90
2018-11-28T05:32:51.724Z,88.90
2018-11-28T05:35:23.448Z,88.90
2018-11-28T05:37:52.010Z,88.80
2018-11-28T05:40:21.983Z,88.90
2018-11-28T05:42:50.586Z,89.00
2018-11-28T05:45:19.262Z,88.90
2018-11-28T05:47:47.862Z,88.80
2018-11-28T05:50:18.357Z,88.80
2018-11-28T05:52:47.054Z,88.80
2018-11-28T05:55:16.352Z,88.60
2018-11-28T05:57:44.965Z,88.70
2018-11-28T06:00:40.357Z,89.00
2018-11-28T06:03:10.864Z,89.20
2018-11-28T06:05:41.130Z,89.60
2018-11-28T06:08:09.902Z,89.90
2018-11-28T06:10:38.462Z,90.00
2018-11-28T06:13:07.104Z,90.00
2018-11-28T06:15:35.663Z,90.10
2018-11-28T06:18:04.219Z,90.10
2018-11-28T06:20:32.799Z,90.10
2018-11-28T06:23:01.431Z,90.10
2018-11-28T06:25:30.034Z,90.00
2018-11-28T06:27:58.583Z,89.80
2018-11-28T06:30:27.154Z,89.80
2018-11-28T06:32:55.734Z,89.70
2018-11-28T06:35:24.300Z,89.60
2018-11-28T06:37:52.842Z,89.60
2018-11-28T06:40:24.217Z,89.50
2018-11-28T06:42:50.018Z,89.40
2018-11-28T06:45:19.728Z,89.30
2018-11-28T06:47:48.307Z,89.10
2018-11-28T06:50:17.748Z,89.10
2018-11-28T06:52:47.499Z,89.00
2018-11-28T06:55:17.015Z,89.10
2018-11-28T06:57:45.582Z,89.20
2018-11-28T07:00:18.907Z,89.30
2018-11-28T07:02:48.134Z,89.40
2018-11-28T07:05:16.785Z,89.50
2018-11-28T07:07:45.366Z,89.40
2018-11-28T07:10:16.649Z,89.30
2018-11-28T07:12:45.223Z,89.40
2018-11-28T07:15:16.578Z,89.30
2018-11-28T07:17:45.246Z,89.30
2018-11-28T07:20:15.760Z,89.20
2018-11-28T07:22:44.351Z,89.00
2018-11-28T07:25:13.893Z,88.90
2018-11-28T07:27:44.982Z,88.70
2018-11-28T07:30:22.395Z,88.70
2018-11-28T07:32:52.245Z,88.70
2018-11-28T07:35:20.837Z,88.50
2018-11-28T07:37:49.414Z,88.50
2018-11-28T07:40:19.222Z,88.20
2018-11-28T07:42:55.582Z,88.10
2018-11-28T07:45:24.147Z,88.00
2018-11-28T07:47:52.759Z,87.80
2018-11-28T07:50:21.309Z,87.80
2018-11-28T07:52:49.866Z,87.90
2018-11-28T07:55:18.438Z,87.80
2018-11-28T07:57:47.011Z,87.80
2018-11-28T08:00:15.999Z,87.70
2018-11-28T08:02:44.874Z,87.40
2018-11-28T08:05:13.502Z,87.20
2018-11-28T08:07:42.079Z,87.20
2018-11-28T08:10:24.249Z,87.20
2018-11-28T08:12:53.810Z,87.30
2018-11-28T08:15:22.367Z,87.10
2018-11-28T08:17:51.131Z,87.00
2018-11-28T08:20:19.727Z,86.70
2018-11-28T08:22:48.297Z,86.40
2018-11-28T08:25:18.057Z,86.40
2018-11-28T08:27:47.746Z,86.10
2018-11-28T08:30:22.175Z,85.80
2018-11-28T08:32:50.915Z,85.80
2018-11-28T08:35:19.678Z,85.80
2018-11-28T08:37:48.230Z,85.70
2018-11-28T08:40:18.932Z,85.70
2018-11-28T08:42:47.534Z,85.50
2018-11-28T08:45:17.040Z,85.60
2018-11-28T08:47:46.581Z,85.70
2018-11-28T08:50:20.060Z,85.60
2018-11-28T08:52:48.658Z,85.50
2018-11-28T08:55:17.244Z,85.40
2018-11-28T08:57:45.852Z,85.50
2018-11-28T09:00:18.166Z,85.20
2018-11-28T09:02:47.758Z,85.10
2018-11-28T09:05:16.366Z,84.80
2018-11-28T09:07:44.932Z,84.70
2018-11-28T09:10:17.853Z,84.50
2018-11-28T09:12:46.942Z,84.60
2018-11-28T09:15:16.716Z,84.70
2018-11-28T09:17:45.507Z,84.80
2018-11-28T09:20:14.622Z,84.50
2018-11-28T09:22:43.250Z,84.30
2018-11-28T09:25:14.749Z,84.20
2018-11-28T09:27:44.218Z,84.20
2018-11-28T09:30:14.158Z,84.30
2018-11-28T09:32:42.746Z,84.30
2018-11-28T09:35:12.027Z,84.30
2018-11-28T09:37:45.453Z,84.30
2018-11-28T09:40:16.722Z,84.00
2018-11-28T09:42:45.414Z,84.30
2018-11-28T09:45:14.925Z,84.40
2018-11-28T09:47:43.827Z,84.20
2018-11-28T09:50:17.245Z,84.00
2018-11-28T09:52:45.930Z,84.10
2018-11-28T09:55:18.462Z,84.00
2018-11-28T09:57:47.197Z,84.10
2018-11-28T10:00:17.614Z,84.20
2018-11-28T10:02:46.218Z,84.40
2018-11-28T10:05:19.706Z,84.70
2018-11-28T10:07:48.438Z,84.60
2018-11-28T10:10:17.028Z,84.70
2018-11-28T10:12:45.623Z,84.70
2018-11-28T10:15:15.283Z,84.70
2018-11-28T10:17:44.051Z,84.60
2018-11-28T10:20:13.406Z,84.80
2018-11-28T10:22:42.110Z,85.00
2018-11-28T10:25:13.594Z,85.00
2018-11-28T10:27:42.503Z,84.80
2018-11-28T10:30:18.368Z,84.80
2018-11-28T10:32:47.288Z,84.60
2018-11-28T10:35:15.891Z,84.80
2018-11-28T10:37:44.475Z,85.00
2018-11-28T10:40:16.701Z,84.90
2018-11-28T10:42:45.734Z,84.90
2018-11-28T10:45:15.533Z,85.10
2018-11-28T10:47:44.127Z,85.00
2018-11-28T10:50:14.506Z,85.10
2018-11-28T10:52:43.178Z,84.80
2018-11-28T10:55:15.511Z,84.60
2018-11-28T10:57:44.234Z,84.60
2018-11-28T11:00:19.508Z,84.70
2018-11-28T11:02:53.478Z,84.50
2018-11-28T11:05:27.230Z,84.70
2018-11-28T11:08:01.254Z,84.90
2018-11-28T11:10:34.986Z,84.90
2018-11-28T11:15:11.714Z,85.00
2018-11-28T11:17:40.297Z,85.30
2018-11-28T11:20:09.049Z,85.50
2018-11-28T11:22:37.587Z,85.50
2018-11-28T11:25:06.660Z,85.40
2018-11-28T11:27:35.214Z,85.20
2018-11-28T11:30:03.895Z,85.30
2018-11-28T11:32:32.449Z,85.40
2018-11-28T11:35:01.020Z,85.20
2018-11-28T11:37:29.571Z,85.10
2018-11-28T11:39:58.111Z,85.30
2018-11-28T11:42:26.694Z,85.50
2018-11-28T11:44:55.257Z,85.50
2018-11-28T11:47:23.806Z,85.60
2018-11-28T11:49:52.370Z,85.60
2018-11-28T11:52:20.959Z,85.40
2018-11-28T11:54:49.542Z,85.30
2018-11-28T11:57:18.304Z,85.20
2018-11-28T11:59:46.870Z,85.00
2018-11-28T12:02:15.438Z,84.90
2018-11-28T12:04:43.965Z,84.70
2018-11-28T12:07:12.598Z,84.90
2018-11-28T12:09:41.179Z,84.90
2018-11-28T12:12:09.762Z,84.60
2018-11-28T12:14:38.316Z,84.50
2018-11-28T12:17:06.908Z,84.50
2018-11-28T12:19:35.466Z,84.30
2018-11-28T12:22:04.031Z,84.20
2018-11-28T12:24:32.598Z,84.20
2018-11-28T12:27:01.185Z,84.10
2018-11-28T12:29:29.800Z,83.80
2018-11-28T12:31:58.365Z,83.60
2018-11-28T12:34:26.964Z,83.70
2018-11-28T12:36:55.505Z,83.80
2018-11-28T12:39:24.072Z,83.90
2018-11-28T12:41:52.619Z,84.20
2018-11-28T12:44:21.188Z,84.30
2018-11-28T12:46:49.767Z,84.50
2018-11-28T12:49:18.306Z,84.30
2018-11-28T12:51:46.854Z,84.30
2018-11-28T12:54:15.450Z,83.90
2018-11-28T12:56:44.018Z,83.90
2018-11-28T12:59:12.578Z,84.10
2018-11-28T13:01:41.122Z,84.40
2018-11-28T13:04:09.678Z,84.50
2018-11-28T13:06:38.238Z,84.40
2018-11-28T13:09:07.633Z,84.10
2018-11-28T13:11:36.198Z,83.80
2018-11-28T13:14:04.790Z,83.60
2018-11-28T13:16:33.330Z,83.20
2018-11-28T13:19:01.926Z,83.20
2018-11-28T13:21:30.473Z,82.60
2018-11-28T13:23:59.020Z,82.40
2018-11-28T13:26:27.586Z,82.40
2018-11-28T13:28:56.134Z,82.80
2018-11-28T13:31:24.682Z,83.10
2018-11-28T13:33:53.235Z,83.00
2018-11-28T13:36:22.691Z,82.90
2018-11-28T13:38:50.374Z,82.80
2018-11-28T13:41:18.930Z,83.10
2018-11-28T13:43:47.494Z,83.70
2018-11-28T13:46:16.055Z,83.70
2018-11-28T13:48:44.614Z,83.50
2018-11-28T13:51:13.176Z,83.50
2018-11-28T13:53:41.727Z,83.10
2018-11-28T13:58:38.930Z,82.80
2018-11-28T14:01:07.523Z,82.50
2018-11-28T14:03:36.058Z,82.30
2018-11-28T14:06:04.826Z,82.60
2018-11-28T14:08:33.374Z,82.70
2018-11-28T14:11:01.938Z,82.70
2018-11-28T14:13:30.480Z,82.70
2018-11-28T14:15:59.042Z,83.00
2018-11-28T14:18:27.606Z,83.10
2018-11-28T14:20:56.167Z,83.00
2018-11-28T14:23:24.758Z,83.00
2018-11-28T14:25:53.316Z,83.40
2018-11-28T14:28:21.880Z,83.40
2018-11-28T14:30:50.444Z,83.50
2018-11-28T14:33:19.020Z,83.50
2018-11-28T14:35:47.595Z,83.50
2018-11-28T14:38:16.138Z,83.50
2018-11-28T14:40:45.578Z,83.40
2018-11-28T14:43:14.134Z,83.40
2018-11-28T14:45:42.822Z,83.70
2018-11-28T14:48:11.679Z,83.90
2018-11-28T14:50:40.406Z,84.10
2018-11-28T14:53:08.970Z,84.30
2018-11-28T14:55:38.845Z,84.50
2018-11-28T14:58:08.828Z,84.30
2018-11-28T15:00:37.470Z,84.40
2018-11-28T15:03:14.642Z,84.50
2018-11-28T15:07:52.692Z,84.40
2018-11-28T15:10:27.026Z,84.40
2018-11-28T15:12:55.704Z,84.40
2018-11-28T15:15:24.270Z,84.30
2018-11-28T15:17:52.866Z,84.20
2018-11-28T15:20:21.406Z,84.20
2018-11-28T15:22:50.074Z,84.50
2018-11-28T15:25:18.675Z,84.80
2018-11-28T15:27:47.237Z,84.70
2018-11-28T15:30:15.841Z,84.40
2018-11-28T15:32:44.390Z,84.20
2018-11-28T15:35:12.973Z,84.40
2018-11-28T15:37:41.558Z,84.70
2018-11-28T15:40:10.167Z,84.90
2018-11-28T15:42:38.734Z,85.20
2018-11-28T15:45:08.733Z,85.20
2018-11-28T15:47:37.371Z,85.10
2018-11-28T15:50:07.413Z,84.90
2018-11-28T15:52:35.993Z,85.30
2018-11-28T15:55:05.507Z,85.40
2018-11-28T15:57:34.050Z,85.20
2018-11-28T16:00:02.691Z,85.20
2018-11-28T16:02:31.246Z,85.00
2018-11-28T16:04:59.793Z,84.80
2018-11-28T16:07:28.358Z,84.70
2018-11-28T16:10:02.146Z,84.70
2018-11-28T16:12:30.819Z,84.60
2018-11-28T16:14:59.412Z,84.70
2018-11-28T16:17:27.972Z,84.70
2018-11-28T16:19:56.506Z,85.00
2018-11-28T16:22:25.086Z,85.20
2018-11-28T16:24:53.638Z,85.10
2018-11-28T16:27:22.206Z,85.00
2018-11-28T16:29:50.801Z,85.60
2018-11-28T16:32:19.410Z,84.90
2018-11-28T16:34:48.019Z,84.90
2018-11-28T16:37:16.607Z,84.70
2018-11-28T16:39:45.146Z,84.60
2018-11-28T16:42:13.807Z,84.60
2018-11-28T16:44:42.382Z,84.50
2018-11-28T16:47:10.951Z,84.40
2018-11-28T16:49:39.482Z,84.50
2018-11-28T16:52:08.044Z,84.70
2018-11-28T16:54:36.618Z,84.80
2018-11-28T16:57:05.210Z,85.00
2018-11-28T16:59:33.758Z,85.30
2018-11-28T17:02:02.353Z,85.80
2018-11-28T17:04:30.957Z,86.00
2018-11-28T17:06:59.519Z,86.00
2018-11-28T17:09:28.070Z,86.00
2018-11-28T17:11:56.627Z,85.70
2018-11-28T17:14:25.192Z,85.60
2018-11-28T17:16:53.791Z,85.60
2018-11-28T17:19:22.326Z,85.50
2018-11-28T17:21:50.902Z,85.30
2018-11-28T17:24:19.478Z,85.30
2018-11-28T17:26:48.054Z,85.30
2018-11-28T17:29:16.575Z,85.20
2018-11-28T17:31:45.123Z,85.10
2018-11-28T17:34:13.710Z,85.00
2018-11-28T17:36:42.276Z,85.20
2018-11-28T17:39:12.158Z,85.20
2018-11-28T17:41:41.046Z,85.40
2018-11-28T17:44:09.958Z,85.40
2018-11-28T17:46:38.526Z,85.30
2018-11-28T17:49:07.074Z,85.40
2018-11-28T17:51:35.614Z,85.60
2018-11-28T17:54:04.213Z,85.90
2018-11-28T17:56:32.786Z,86.00
2018-11-28T17:59:01.361Z,86.00
2018-11-28T18:01:29.907Z,86.00
2018-11-28T18:03:58.461Z,85.80
2018-11-28T18:06:27.014Z,85.70
2018-11-28T18:08:55.594Z,85.90
2018-11-28T18:11:24.191Z,86.00
2018-11-28T18:13:52.776Z,86.10
2018-11-28T18:16:21.330Z,86.00
2018-11-28T18:18:49.893Z,85.90
2018-11-28T18:21:18.466Z,85.80
2018-11-28T18:23:47.062Z,85.80
2018-11-28T18:26:16.054Z,85.90
2018-11-28T18:28:44.615Z,86.00
2018-11-28T18:31:13.170Z,86.00
2018-11-28T18:33:41.767Z,85.80
2018-11-28T18:36:10.320Z,85.70
2018-11-28T18:38:38.884Z,85.60
2018-11-28T18:41:07.460Z,85.60
2018-11-28T18:43:36.054Z,85.90
2018-11-28T18:46:04.651Z,86.00
2018-11-28T18:48:33.182Z,85.80
2018-11-28T18:51:01.773Z,85.60
2018-11-28T18:53:30.333Z,85.80
2018-11-28T18:55:58.890Z,85.60
2018-11-28T18:58:27.469Z,85.70
2018-11-28T19:00:56.026Z,85.60
2018-11-28T19:03:24.586Z,85.60
2018-11-28T19:05:53.149Z,85.40
2018-11-28T19:08:21.804Z,85.50
2018-11-28T19:10:50.417Z,85.40
2018-11-28T19:13:18.982Z,85.20
2018-11-28T19:15:47.539Z,85.10
2018-11-28T19:18:16.105Z,85.10
2018-11-28T19:20:44.650Z,85.20
2018-11-28T19:23:13.426Z,84.90
2018-11-28T19:25:41.974Z,85.10
2018-11-28T19:28:10.532Z,85.40
2018-11-28T19:30:41.639Z,85.30
2018-11-28T19:33:12.370Z,85.40
2018-11-28T19:35:40.950Z,85.30
2018-11-28T19:38:12.582Z,85.30
2018-11-28T19:40:47.339Z,85.30
2018-11-28T19:43:15.878Z,85.30
2018-11-28T19:45:44.546Z,85.20
2018-11-28T19:48:13.099Z,85.30
2018-11-28T19:50:41.794Z,85.20
2018-11-28T19:53:10.562Z,85.10
2018-11-28T19:55:39.502Z,85.20
2018-11-28T19:58:08.053Z,84.90
2018-11-28T20:00:37.510Z,84.90
2018-11-28T20:03:06.395Z,85.10
2018-11-28T20:05:34.986Z,85.40
2018-11-28T20:08:03.547Z,85.50
2018-11-28T20:10:32.483Z,85.50
2018-11-28T20:13:01.047Z,85.50
2018-11-28T20:15:30.442Z,85.40
2018-11-28T20:17:59.028Z,85.30
2018-11-28T20:20:27.570Z,85.20
2018-11-28T20:22:56.134Z,85.10
2018-11-28T20:25:25.206Z,84.90
2018-11-28T20:27:56.975Z,84.70
2018-11-28T20:30:31.679Z,84.70
2018-11-28T20:33:00.270Z,84.70
2018-11-28T20:35:28.867Z,84.60
2018-11-28T20:37:57.499Z,84.80
2018-11-28T20:40:26.114Z,84.80
2018-11-28T20:42:55.553Z,85.00
2018-11-28T20:45:24.169Z,85.10
2018-11-28T20:47:52.754Z,85.00
2018-11-28T20:50:24.818Z,84.90
2018-11-28T20:52:55.287Z,85.00
2018-11-28T20:55:23.627Z,85.00
2018-11-28T20:57:52.506Z,85.00
2018-11-28T21:00:22.326Z,85.20
2018-11-28T21:02:50.993Z,85.30
2018-11-28T21:05:19.582Z,85.20
2018-11-28T21:07:48.155Z,85.30
2018-11-28T21:10:22.266Z,85.30
2018-11-28T21:12:50.833Z,85.30
2018-11-28T21:15:19.405Z,85.20
2018-11-28T21:17:48.105Z,85.10
2018-11-28T21:20:19.723Z,85.20
2018-11-28T21:22:50.362Z,85.40
2018-11-28T21:25:18.926Z,85.50
2018-11-28T21:27:47.486Z,85.60
2018-11-28T21:30:17.299Z,85.60
2018-11-28T21:32:45.883Z,85.60
2018-11-28T21:35:17.644Z,85.60
2018-11-28T21:37:46.196Z,85.60
2018-11-28T21:40:14.794Z,85.60
2018-11-28T21:42:43.354Z,85.60
2018-11-28T21:45:13.078Z,85.70
2018-11-28T21:47:41.610Z,85.80
2018-11-28T21:50:18.025Z,85.70
2018-11-28T21:52:46.747Z,85.60
2018-11-28T21:55:18.177Z,85.60
2018-11-28T21:57:46.770Z,85.70
2018-11-28T22:00:16.286Z,85.70
2018-11-28T22:02:44.889Z,85.60
2018-11-28T22:05:14.173Z,85.50
2018-11-28T22:07:42.798Z,85.40
2018-11-28T22:10:16.271Z,85.40
2018-11-28T22:12:45.307Z,85.60
2018-11-28T22:15:15.711Z,85.80
2018-11-28T22:17:53.046Z,86.10
2018-11-28T22:20:21.840Z,86.20
2018-11-28T22:22:50.412Z,86.00
2018-11-28T22:25:23.612Z,86.10
2018-11-28T22:27:52.286Z,86.30
2018-11-28T22:30:25.121Z,86.40
2018-11-28T22:32:53.689Z,86.20
2018-11-28T22:35:22.330Z,86.00
2018-11-28T22:37:50.950Z,86.00
2018-11-28T22:40:20.665Z,86.00
2018-11-28T22:42:49.260Z,85.90
2018-11-28T22:45:19.020Z,85.90
2018-11-28T22:47:47.610Z,85.90
2018-11-28T22:50:16.384Z,86.00
2018-11-28T22:52:44.937Z,86.10
2018-11-28T22:55:17.069Z,86.10
2018-11-28T22:57:45.637Z,86.10
2018-11-28T23:00:17.979Z,86.20
2018-11-28T23:02:58.877Z,86.20
2018-11-28T23:05:29.479Z,86.30
2018-11-28T23:07:59.285Z,86.30
2018-11-28T23:10:28.189Z,86.30
2018-11-28T23:12:56.785Z,86.20
2018-11-28T23:15:25.379Z,86.10
2018-11-28T23:17:55.500Z,86.30
2018-11-28T23:20:22.658Z,86.10
2018-11-28T23:22:51.252Z,86.40
2018-11-28T23:25:19.919Z,86.70
2018-11-28T23:27:48.491Z,86.70
2018-11-28T23:30:18.925Z,86.90
2018-11-28T23:32:48.133Z,86.90
2018-11-28T23:35:16.866Z,86.90
2018-11-28T23:37:46.457Z,86.80
2018-11-28T23:40:16.673Z,86.70
2018-11-28T23:42:45.247Z,86.70
2018-11-28T23:45:14.706Z,86.50
2018-11-28T23:47:43.266Z,86.40
2018-11-28T23:50:14.699Z,86.30
2018-11-28T23:52:43.571Z,86.30
2018-11-28T23:55:17.218Z,86.40
2018-11-28T23:57:45.750Z,86.50
